Weather reports worldwide

Advertisment
Großer Arber, Germany (10791): temperature & dewpoint: 20.03.2019 08:00:00 - 26.03.2019 08:00:00 (CET)Großer Arber, Germany (10791): wind speed & gusts: 20.03.2019 08:00:00 - 26.03.2019 08:00:00 (CET)Großer Arber, Germany (10791): wind direction: 20.03.2019 08:00:00 - 26.03.2019 08:00:00 (CET)Großer Arber, Germany (10791): visibility: 20.03.2019 08:00:00 - 26.03.2019 08:00:00 (CET)Großer Arber, Germany (10791): sunshine duration: 20.03.2019 08:00:00 - 26.03.2019 08:00:00 (CET)
Date & Time tt [°C] td [°C] ff [km/h] ff [kn] fx [km/h] fx [kn] dd vv [km] sd [min]
26.03.2019 08:00:00 - - - - - - - - -
26.03.2019 07:00:00 -5,0 -5,3 19 11 36 20 NNW - 0
26.03.2019 06:00:00 -5,1 -5,5 23 12 35 19 NNW - 0
26.03.2019 05:00:00 -5,6 -6,0 24 13 33 18 N 0,3 0
26.03.2019 04:00:00 -5,3 -5,6 24 13 34 19 NNW - 0
26.03.2019 03:00:00 -6,2 -6,6 29 16 54 29 N 38 0
26.03.2019 02:00:00 -5,3 -5,5 36 20 59 32 N 0,1 0
26.03.2019 01:00:00 -5,5 -6,0 46 25 61 33 N 0,2 0
26.03.2019 00:00:00 -5,1 -5,6 48 26 68 37 N - 0
25.03.2019 23:00:00 -5,0 -5,5 52 28 74 40 N 0,1 0
25.03.2019 22:00:00 -4,7 -5,3 46 25 64 35 NNW 0,1 0
25.03.2019 21:00:00 -4,5 -5,0 45 25 72 39 NW 0,1 0
25.03.2019 20:00:00 -4,6 -5,0 39 21 60 32 NW 0,1 0
25.03.2019 19:00:00 -4,9 -5,4 39 21 61 33 NW 0,1 0
25.03.2019 18:00:00 -4,8 -5,3 39 21 79 42 WNW 0,1 0
25.03.2019 17:00:00 -4,3 -4,9 48 26 74 40 W 0,7 6
25.03.2019 16:00:00 -4,3 -5,4 38 20 68 37 W 0,7 6
25.03.2019 15:00:00 -3,1 -4,9 34 18 52 28 W 21 0
25.03.2019 14:00:00 -3,2 -4,4 27 14 74 40 W 14 5
25.03.2019 13:00:00 -3,8 -4,3 41 22 67 36 W 0,7 2
25.03.2019 12:00:00 -4,1 -4,8 38 21 62 34 W 0,1 0
25.03.2019 11:00:00 -4,0 -5,6 38 21 59 32 W 19 19
25.03.2019 10:00:00 -3,6 -5,6 40 22 64 35 W 12 30
25.03.2019 09:00:00 -3,6 -4,3 47 25 67 36 W 0,2 4
25.03.2019 08:00:00 -3,1 -3,5 41 22 64 35 W 0,1 0
25.03.2019 07:00:00 -2,1 -2,3 46 25 64 35 W 0,1 0
25.03.2019 06:00:00 -1,7 -1,8 39 21 61 33 W 0,1 0
25.03.2019 05:00:00 -1,9 -2,5 37 20 49 27 W 4,0 0
25.03.2019 04:00:00 -1,8 -2,9 31 17 45 24 WNW 11 0
25.03.2019 03:00:00 -1,6 -2,3 31 17 53 29 WNW 4,6 0
25.03.2019 02:00:00 -0,7 -0,9 36 20 52 28 W 0,1 0
25.03.2019 01:00:00 -0,1 -0,3 34 19 50 27 WNW 0,1 0
25.03.2019 00:00:00 0,9 0,8 24 13 40 22 WNW - 0
24.03.2019 23:00:00 1,1 1,0 23 12 37 20 NW - 0
24.03.2019 22:00:00 1,3 1,2 24 13 38 20 NW - 0
24.03.2019 21:00:00 1,7 1,6 26 14 37 20 WNW 0,1 0
24.03.2019 20:00:00 2,3 2,2 24 13 34 19 NW - 0
24.03.2019 19:00:00 3,0 2,0 22 12 35 19 NW 2,7 0
24.03.2019 18:00:00 3,7 2,1 18 10 27 15 WNW 3,5 14
24.03.2019 17:00:00 4,8 2,5 19 11 30 16 WNW 4,6 35
24.03.2019 16:00:00 5,0 2,2 14 7 32 17 WNW 5 31
24.03.2019 15:00:00 6,3 -0,2 20 11 33 18 W 13 60
24.03.2019 14:00:00 6,4 0,8 20 11 29 16 W 9 58
24.03.2019 13:00:00 5,9 0,8 16 8 29 15 W 8 55
24.03.2019 12:00:00 6,2 -0,3 19 10 32 17 WSW 11 58
24.03.2019 11:00:00 5,9 0,3 16 8 26 14 SW 13 60
24.03.2019 10:00:00 5,7 0,9 11 6 16 9 SSW 13 60
24.03.2019 09:00:00 5,8 0,7 10 5 22 12 S 17 60
24.03.2019 08:00:00 5,4 0,9 17 9 21 12 S 18 60
24.03.2019 07:00:00 4,7 1,1 16 9 19 11 S 17 24
24.03.2019 06:00:00 3,8 0,5 13 7 14 8 SSE 16 0
24.03.2019 05:00:00 4,1 0,9 6 4 12 6 SSE 18 0
24.03.2019 04:00:00 4,0 1,1 8 5 12 6 SSE 18 0
24.03.2019 03:00:00 3,2 1,5 11 6 16 9 E 9 0
24.03.2019 02:00:00 5,2 0,6 12 7 14 8 ESE 22 0
24.03.2019 01:00:00 5,9 1,5 6 3 10 6 E 29 0
24.03.2019 00:00:00 5,6 0,0 8 5 11 6 N 18 0
23.03.2019 23:00:00 5,8 -0,3 9 5 11 6 N 25 0
23.03.2019 22:00:00 5,7 -0,2 7 4 14 8 NNW 21 0
23.03.2019 21:00:00 5,6 -0,6 12 7 14 8 NW 19 0
23.03.2019 20:00:00 5,6 1,8 12 7 16 9 NNW 20 0
23.03.2019 19:00:00 6,4 2,1 9 5 12 7 NW 19 24
23.03.2019 18:00:00 7,9 2,5 9 5 12 7 W 17 60
23.03.2019 17:00:00 9,7 2,4 5 3 15 8 W 22 60
23.03.2019 16:00:00 10,4 2,2 7 4 14 7 SW 26 60
23.03.2019 15:00:00 10,9 1,5 5 3 16 8 SW 33 60
23.03.2019 14:00:00 9,9 1,1 9 5 19 10 SW 47 60
23.03.2019 13:00:00 10,3 -0,1 3 2 13 7 W 51 60
23.03.2019 12:00:00 9,1 0,9 8 4 19 10 S 51 60
23.03.2019 11:00:00 8,3 0,0 9 5 16 9 SSE 57 60
23.03.2019 10:00:00 8,5 -2,0 8 4 15 8 SSE 57 60
23.03.2019 09:00:00 7,5 -2,1 11 6 16 9 SE 75 60
23.03.2019 08:00:00 7,0 -1,8 10 5 12 7 SE 58 60
23.03.2019 07:00:00 6,2 -1,6 7 4 11 6 SE 65 20
23.03.2019 06:00:00 5,8 -1,9 5 3 11 6 SSE 75 0
23.03.2019 05:00:00 5,2 -1,3 9 5 15 8 SSE 75 0
23.03.2019 04:00:00 4,9 -0,9 14 8 16 9 S 75 0
23.03.2019 03:00:00 5,2 -0,3 10 6 17 9 S 75 0
23.03.2019 02:00:00 4,9 -0,4 16 8 22 12 S 75 0
23.03.2019 01:00:00 5,1 0,3 16 8 19 11 S 59 0
23.03.2019 00:00:00 5,4 0,5 16 9 23 13 S 53 0
22.03.2019 23:00:00 5,3 0,7 18 10 25 13 SSE 56 0
22.03.2019 22:00:00 5,2 0,7 22 12 26 14 SSE 64 0
22.03.2019 21:00:00 5,5 1,3 21 12 26 14 SE 66 0
22.03.2019 20:00:00 5,2 1,2 21 12 27 14 SSE 51 0
22.03.2019 19:00:00 5,9 1,5 22 12 27 14 SE 54 29
22.03.2019 18:00:00 6,9 1,5 15 8 19 11 SE 67 60
22.03.2019 17:00:00 7,3 1,4 11 6 19 10 E 75 60
22.03.2019 16:00:00 8,8 0,7 8 4 25 13 E 61 60
22.03.2019 15:00:00 8,8 0,1 10 5 23 13 E 75 60
22.03.2019 14:00:00 8,7 -0,5 10 5 22 12 E 59 60
22.03.2019 13:00:00 7,9 -0,7 11 6 23 13 E 63 60
22.03.2019 12:00:00 7,6 -0,7 10 5 19 11 ENE 75 60
22.03.2019 11:00:00 7,4 -0,7 8 5 34 19 E 75 60
22.03.2019 10:00:00 5,4 -1,0 26 14 32 17 E 62 60
22.03.2019 09:00:00 5,1 -0,9 24 13 30 16 E 49 60
22.03.2019 08:00:00 5,4 -0,7 26 14 36 20 SE 64 60
22.03.2019 07:00:00 4,7 -1,0 27 15 36 19 ESE 75 16
22.03.2019 06:00:00 3,7 -1,4 22 12 33 18 ESE 75 0
22.03.2019 05:00:00 4,6 -1,0 24 13 33 18 ESE 75 0
22.03.2019 04:00:00 4,4 -1,2 21 11 28 15 ESE 75 0
22.03.2019 03:00:00 3,9 -2,3 19 11 32 18 ESE 75 0
22.03.2019 02:00:00 3,3 -5,0 25 13 32 18 E 75 0
22.03.2019 01:00:00 2,9 -10,3 22 12 26 14 E 75 0
22.03.2019 00:00:00 4,2 -6,3 17 9 23 12 E 75 0
21.03.2019 23:00:00 4,5 -6,1 16 9 21 11 E 75 0
21.03.2019 22:00:00 5,0 -5,6 17 9 22 12 ESE 75 0
21.03.2019 21:00:00 4,3 -11,1 18 10 24 13 ESE 75 0
21.03.2019 20:00:00 4,9 -11,0 22 12 28 15 ESE 75 0
21.03.2019 19:00:00 4,6 -6,2 20 11 22 12 ESE 72 26
21.03.2019 18:00:00 4,4 -5,9 14 7 17 9 ESE 69 60
21.03.2019 17:00:00 5,2 -6,2 10 5 17 9 E 75 60
21.03.2019 16:00:00 6,0 -6,5 9 5 16 8 E 55 60
21.03.2019 15:00:00 6,6 -8,2 7 4 16 9 E 58 60
21.03.2019 14:00:00 6,1 -9,8 8 5 17 9 NE 73 60
21.03.2019 13:00:00 6,0 -8,8 6 4 18 10 E 58 60
21.03.2019 12:00:00 4,4 -9,3 7 4 20 11 E 64 60
21.03.2019 11:00:00 3,2 -10,2 11 6 35 19 ENE 57 60
21.03.2019 10:00:00 1,6 -12,0 24 13 36 19 E 47 60
21.03.2019 09:00:00 0,2 -9,5 23 13 34 18 E 75 60
21.03.2019 08:00:00 -0,5 -7,7 16 8 27 14 ENE 33 60
21.03.2019 07:00:00 -1,3 -7,8 20 11 27 14 E 61 17
21.03.2019 06:00:00 -1,7 -7,8 19 10 28 15 E 61 0
21.03.2019 05:00:00 -2,1 -7,9 24 13 26 14 E 56 0
21.03.2019 04:00:00 -1,6 -7,6 18 10 27 15 NE 64 0
21.03.2019 03:00:00 -2,5 -7,9 23 12 27 15 NNE 65 0
21.03.2019 02:00:00 -2,8 -8,2 18 10 20 11 NNE 56 0
21.03.2019 01:00:00 -2,6 -8,4 14 7 19 10 NNE 62 0
21.03.2019 00:00:00 -2,7 -8,5 15 8 18 10 NNE 56 0
20.03.2019 23:00:00 -2,9 -8,9 14 7 19 10 NNE 68 0
20.03.2019 22:00:00 -2,5 -9,3 16 9 24 13 NNE 75 0
20.03.2019 21:00:00 -2,6 -9,6 18 10 23 12 NNE 72 0
20.03.2019 20:00:00 -2,1 -8,6 15 8 21 11 N 64 0
20.03.2019 19:00:00 -2,3 -8,0 14 8 18 10 N 48 25
20.03.2019 18:00:00 -1,1 -7,3 14 7 20 11 NNW 58 60
20.03.2019 17:00:00 0,0 -7,1 14 8 21 12 NW 54 60
20.03.2019 16:00:00 0,4 -7,2 11 6 19 11 NNW 41 60
20.03.2019 15:00:00 0,7 -8,6 6 3 12 6 N 46 60
20.03.2019 14:00:00 0,3 -8,0 5 3 17 9 N 60 57
20.03.2019 13:00:00 -0,3 -9,5 6 4 14 7 ENE 75 55
20.03.2019 12:00:00 -1,5 -10,1 10 5 15 8 NNE 66 60
20.03.2019 11:00:00 -1,2 -9,2 4 2 13 7 NNE 68 60
20.03.2019 10:00:00 -2,4 -11,1 3 1 10 5 NNW 46 55
20.03.2019 09:00:00 -4,0 -10,2 8 4 14 8 NNW 75 60
20.03.2019 08:00:00 -5,1 -10,3 9 5 13 7 N 56 51

tt = temperature
td = dewpoint
ff = wind speed
fx = gusts
dd = wind direction
vv = visibility
sd = sunshine duration

Next stations